sensor_id;sensor_type;location;lat;lon;timestamp;pressure;altitude;pressure_sealevel;temperature;humidity
46886;BME280;32622;48.202;11.326;2022-10-26T00:01:34;1019.91;;;12.17;30.10
46886;BME280;32622;48.202;11.326;2022-10-26T00:03:48;1019.89;;;12.17;30.10
46886;BME280;32622;48.202;11.326;2022-10-26T00:06:14;1019.83;;;12.26;30.01
46886;BME280;32622;48.202;11.326;2022-10-26T00:08:25;1019.80;;;12.12;30.10
46886;BME280;32622;48.202;11.326;2022-10-26T00:10:39;1019.69;;;12.22;30.07
46886;BME280;32622;48.202;11.326;2022-10-26T00:12:52;1019.76;;;11.74;30.64
46886;BME280;32622;48.202;11.326;2022-10-26T00:15:03;1019.51;;;12.48;30.16
46886;BME280;32622;48.202;11.326;2022-10-26T00:17:26;1019.78;;;11.13;33.58
46886;BME280;32622;48.202;11.326;2022-10-26T00:19:32;1020.23;;;9.63;34.70
46886;BME280;32622;48.202;11.326;2022-10-26T00:21:36;1020.01;;;10.47;32.72
46886;BME280;32622;48.202;11.326;2022-10-26T00:23:39;1019.71;;;11.59;31.63
46886;BME280;32622;48.202;11.326;2022-10-26T00:25:42;1020.13;;;9.74;32.91
46886;BME280;32622;48.202;11.326;2022-10-26T00:27:45;1019.91;;;10.96;32.19
46886;BME280;32622;48.202;11.326;2022-10-26T00:29:49;1020.23;;;9.73;34.04
46886;BME280;32622;48.202;11.326;2022-10-26T00:31:52;1020.02;;;10.27;33.40
46886;BME280;32622;48.202;11.326;2022-10-26T00:33:55;1020.25;;;9.06;34.65
46886;BME280;32622;48.202;11.326;2022-10-26T00:36:00;1020.46;;;7.64;37.13
46886;BME280;32622;48.202;11.326;2022-10-26T00:38:03;1020.06;;;9.53;34.57
46886;BME280;32622;48.202;11.326;2022-10-26T00:40:07;1019.77;;;10.59;33.52
46886;BME280;32622;48.202;11.326;2022-10-26T00:42:12;1019.79;;;10.86;32.86
46886;BME280;32622;48.202;11.326;2022-10-26T00:46:48;1020.03;;;10.85;32.75
46886;BME280;32622;48.202;11.326;2022-10-26T00:48:54;1019.82;;;11.68;31.93
46886;BME280;32622;48.202;11.326;2022-10-26T00:51:02;1019.80;;;11.78;31.50
46886;BME280;32622;48.202;11.326;2022-10-26T00:53:07;1019.83;;;11.62;31.20
46886;BME280;32622;48.202;11.326;2022-10-26T00:55:10;1019.98;;;10.76;32.03
46886;BME280;32622;48.202;11.326;2022-10-26T00:57:15;1019.66;;;12.08;31.15
46886;BME280;32622;48.202;11.326;2022-10-26T00:59:21;1019.56;;;12.51;30.80
46886;BME280;32622;48.202;11.326;2022-10-26T01:01:24;1019.47;;;12.75;30.55
46886;BME280;32622;48.202;11.326;2022-10-26T01:03:29;1019.49;;;12.59;30.31
46886;BME280;32622;48.202;11.326;2022-10-26T01:05:34;1019.49;;;12.89;30.08
46886;BME280;32622;48.202;11.326;2022-10-26T01:07:38;1019.45;;;13.04;29.96
46886;BME280;32622;48.202;11.326;2022-10-26T01:09:43;1019.47;;;12.72;29.85
46886;BME280;32622;48.202;11.326;2022-10-26T01:11:46;1019.39;;;13.01;29.42
46886;BME280;32622;48.202;11.326;2022-10-26T01:13:50;1019.52;;;12.81;29.58
46886;BME280;32622;48.202;11.326;2022-10-26T01:16:05;1019.44;;;13.20;29.64
46886;BME280;32622;48.202;11.326;2022-10-26T01:18:14;1019.42;;;13.25;29.66
46886;BME280;32622;48.202;11.326;2022-10-26T01:20:49;1019.42;;;13.06;29.51
46886;BME280;32622;48.202;11.326;2022-10-26T01:23:00;1019.50;;;12.60;29.53
46886;BME280;32622;48.202;11.326;2022-10-26T01:25:14;1019.45;;;12.88;29.61
46886;BME280;32622;48.202;11.326;2022-10-26T01:27:26;1019.46;;;13.03;29.47
46886;BME280;32622;48.202;11.326;2022-10-26T01:29:52;1019.57;;;12.99;29.50
46886;BME280;32622;48.202;11.326;2022-10-26T01:32:07;1019.40;;;13.36;29.49
46886;BME280;32622;48.202;11.326;2022-10-26T01:34:14;1019.38;;;13.16;29.40
46886;BME280;32622;48.202;11.326;2022-10-26T01:36:28;1019.53;;;12.39;29.54
46886;BME280;32622;48.202;11.326;2022-10-26T01:38:42;1019.52;;;12.59;29.55
46886;BME280;32622;48.202;11.326;2022-10-26T01:40:55;1019.47;;;12.82;29.38
46886;BME280;32622;48.202;11.326;2022-10-26T01:43:04;1019.43;;;12.86;29.26
46886;BME280;32622;48.202;11.326;2022-10-26T01:45:10;1019.39;;;13.24;29.22
46886;BME280;32622;48.202;11.326;2022-10-26T01:47:16;1019.51;;;13.05;29.09
46886;BME280;32622;48.202;11.326;2022-10-26T01:49:25;1019.56;;;13.14;29.08
46886;BME280;32622;48.202;11.326;2022-10-26T01:51:29;1019.59;;;13.06;29.12
46886;BME280;32622;48.202;11.326;2022-10-26T01:53:34;1019.49;;;13.21;29.05
46886;BME280;32622;48.202;11.326;2022-10-26T01:55:43;1019.42;;;12.95;29.32
46886;BME280;32622;48.202;11.326;2022-10-26T01:57:46;1019.50;;;12.62;29.23
46886;BME280;32622;48.202;11.326;2022-10-26T02:00:03;1019.67;;;12.40;29.86
46886;BME280;32622;48.202;11.326;2022-10-26T02:04:47;1019.76;;;12.66;30.09
46886;BME280;32622;48.202;11.326;2022-10-26T02:07:01;1019.66;;;12.77;30.06
46886;BME280;32622;48.202;11.326;2022-10-26T02:09:12;1019.56;;;12.89;29.93
46886;BME280;32622;48.202;11.326;2022-10-26T02:11:30;1019.47;;;13.09;29.36
46886;BME280;32622;48.202;11.326;2022-10-26T02:13:41;1019.60;;;12.63;29.74
46886;BME280;32622;48.202;11.326;2022-10-26T02:15:51;1019.55;;;13.25;29.67
46886;BME280;32622;48.202;11.326;2022-10-26T02:17:59;1019.59;;;12.80;29.46
46886;BME280;32622;48.202;11.326;2022-10-26T02:20:05;1019.59;;;12.41;29.72
46886;BME280;32622;48.202;11.326;2022-10-26T02:22:17;1019.50;;;12.89;29.26
46886;BME280;32622;48.202;11.326;2022-10-26T02:24:22;1019.75;;;12.43;29.87
46886;BME280;32622;48.202;11.326;2022-10-26T02:26:28;1019.85;;;12.66;30.14
46886;BME280;32622;48.202;11.326;2022-10-26T02:28:35;1019.77;;;12.91;29.62
46886;BME280;32622;48.202;11.326;2022-10-26T02:30:42;1019.77;;;12.44;29.75
46886;BME280;32622;48.202;11.326;2022-10-26T02:32:50;1019.64;;;12.83;29.69
46886;BME280;32622;48.202;11.326;2022-10-26T02:34:56;1019.86;;;12.34;29.73
46886;BME280;32622;48.202;11.326;2022-10-26T02:37:03;1019.65;;;12.92;29.36
46886;BME280;32622;48.202;11.326;2022-10-26T02:39:09;1019.57;;;12.98;29.37
46886;BME280;32622;48.202;11.326;2022-10-26T02:41:14;1019.65;;;12.92;29.49
46886;BME280;32622;48.202;11.326;2022-10-26T02:43:18;1019.52;;;12.95;29.32
46886;BME280;32622;48.202;11.326;2022-10-26T02:45:24;1019.37;;;12.76;29.70
46886;BME280;32622;48.202;11.326;2022-10-26T02:47:29;1019.45;;;12.65;30.04
46886;BME280;32622;48.202;11.326;2022-10-26T02:49:33;1019.38;;;12.57;29.85
46886;BME280;32622;48.202;11.326;2022-10-26T02:51:41;1019.45;;;12.15;29.93
46886;BME280;32622;48.202;11.326;2022-10-26T02:53:50;1019.35;;;13.11;29.76
46886;BME280;32622;48.202;11.326;2022-10-26T02:55:59;1019.48;;;12.39;29.86
46886;BME280;32622;48.202;11.326;2022-10-26T02:58:10;1019.15;;;13.16;29.65
46886;BME280;32622;48.202;11.326;2022-10-26T03:00:16;1019.07;;;12.71;29.86
46886;BME280;32622;48.202;11.326;2022-10-26T03:02:22;1019.38;;;11.16;31.76
46886;BME280;32622;48.202;11.326;2022-10-26T03:04:29;1019.37;;;11.02;31.95
46886;BME280;32622;48.202;11.326;2022-10-26T03:06:32;1019.27;;;11.54;31.50
46886;BME280;32622;48.202;11.326;2022-10-26T03:08:36;1019.27;;;11.72;31.13
46886;BME280;32622;48.202;11.326;2022-10-26T03:10:41;1019.17;;;12.23;30.64
46886;BME280;32622;48.202;11.326;2022-10-26T03:12:44;1019.28;;;11.91;30.95
46886;BME280;32622;48.202;11.326;2022-10-26T03:14:47;1019.45;;;10.88;31.95
46886;BME280;32622;48.202;11.326;2022-10-26T03:16:50;1019.53;;;10.71;32.85
46886;BME280;32622;48.202;11.326;2022-10-26T03:18:54;1019.38;;;11.00;32.46
46886;BME280;32622;48.202;11.326;2022-10-26T03:20:57;1019.42;;;10.99;32.73
46886;BME280;32622;48.202;11.326;2022-10-26T03:23:01;1019.60;;;10.76;32.31
46886;BME280;32622;48.202;11.326;2022-10-26T03:25:07;1019.36;;;11.69;31.79
46886;BME280;32622;48.202;11.326;2022-10-26T03:27:10;1019.31;;;11.61;31.26
46886;BME280;32622;48.202;11.326;2022-10-26T03:29:13;1019.64;;;10.07;33.41
46886;BME280;32622;48.202;11.326;2022-10-26T03:31:16;1019.29;;;11.68;32.13
46886;BME280;32622;48.202;11.326;2022-10-26T03:33:20;1019.26;;;12.01;31.49
46886;BME280;32622;48.202;11.326;2022-10-26T03:35:23;1019.29;;;12.14;31.07
46886;BME280;32622;48.202;11.326;2022-10-26T03:37:26;1019.24;;;12.22;30.97
46886;BME280;32622;48.202;11.326;2022-10-26T03:39:29;1019.21;;;12.57;30.68
46886;BME280;32622;48.202;11.326;2022-10-26T03:41:33;1019.21;;;12.82;30.43
46886;BME280;32622;48.202;11.326;2022-10-26T03:43:36;1019.28;;;12.65;30.28
46886;BME280;32622;48.202;11.326;2022-10-26T03:45:39;1019.36;;;12.47;30.35
46886;BME280;32622;48.202;11.326;2022-10-26T03:47:43;1019.33;;;12.53;30.11
46886;BME280;32622;48.202;11.326;2022-10-26T03:49:47;1019.33;;;12.43;30.44
46886;BME280;32622;48.202;11.326;2022-10-26T03:51:50;1019.19;;;12.85;30.17
46886;BME280;32622;48.202;11.326;2022-10-26T03:53:53;1019.14;;;13.00;30.05
46886;BME280;32622;48.202;11.326;2022-10-26T03:55:56;1019.25;;;12.58;30.02
46886;BME280;32622;48.202;11.326;2022-10-26T03:58:00;1019.20;;;13.03;29.79
46886;BME280;32622;48.202;11.326;2022-10-26T04:00:03;1019.17;;;13.22;29.69
46886;BME280;32622;48.202;11.326;2022-10-26T04:02:07;1019.23;;;13.05;29.71
46886;BME280;32622;48.202;11.326;2022-10-26T04:04:10;1019.19;;;13.38;29.48
46886;BME280;32622;48.202;11.326;2022-10-26T04:06:13;1019.27;;;13.18;29.57
46886;BME280;32622;48.202;11.326;2022-10-26T04:08:16;1019.21;;;13.38;29.47
46886;BME280;32622;48.202;11.326;2022-10-26T04:10:20;1019.34;;;13.12;29.62
46886;BME280;32622;48.202;11.326;2022-10-26T04:12:23;1019.35;;;13.58;29.23
46886;BME280;32622;48.202;11.326;2022-10-26T04:14:26;1019.49;;;13.49;29.25
46886;BME280;32622;48.202;11.326;2022-10-26T04:16:29;1019.51;;;13.09;29.66
46886;BME280;32622;48.202;11.326;2022-10-26T04:18:33;1019.34;;;13.61;29.53
46886;BME280;32622;48.202;11.326;2022-10-26T04:20:36;1019.62;;;12.45;30.23
46886;BME280;32622;48.202;11.326;2022-10-26T04:22:40;1019.72;;;12.68;30.05
46886;BME280;32622;48.202;11.326;2022-10-26T04:24:42;1019.90;;;11.69;30.82
46886;BME280;32622;48.202;11.326;2022-10-26T04:26:45;1019.46;;;13.38;29.71
46886;BME280;32622;48.202;11.326;2022-10-26T04:28:49;1019.65;;;12.95;29.73
46886;BME280;32622;48.202;11.326;2022-10-26T04:30:52;1019.78;;;12.46;30.23
46886;BME280;32622;48.202;11.326;2022-10-26T04:32:55;1019.63;;;12.72;30.53
46886;BME280;32622;48.202;11.326;2022-10-26T04:34:58;1019.72;;;12.69;30.28
46886;BME280;32622;48.202;11.326;2022-10-26T04:37:02;1019.63;;;13.35;30.07
46886;BME280;32622;48.202;11.326;2022-10-26T04:40:17;1019.09;;;16.19;30.11
46886;BME280;32622;48.202;11.326;2022-10-26T04:42:20;1019.90;;;12.84;30.62
46886;BME280;32622;48.202;11.326;2022-10-26T04:44:23;1020.22;;;12.11;31.26
46886;BME280;32622;48.202;11.326;2022-10-26T04:46:27;1020.09;;;12.93;30.69
46886;BME280;32622;48.202;11.326;2022-10-26T04:48:30;1020.19;;;12.79;30.38
46886;BME280;32622;48.202;11.326;2022-10-26T04:50:33;1020.34;;;12.75;30.32
46886;BME280;32622;48.202;11.326;2022-10-26T04:52:37;1020.59;;;12.26;30.85
46886;BME280;32622;48.202;11.326;2022-10-26T04:54:40;1020.96;;;11.57;31.94
46886;BME280;32622;48.202;11.326;2022-10-26T04:56:43;1020.99;;;12.00;31.64
46886;BME280;32622;48.202;11.326;2022-10-26T04:58:46;1020.76;;;13.02;31.04
46886;BME280;32622;48.202;11.326;2022-10-26T05:00:51;1020.94;;;11.84;31.23
46886;BME280;32622;48.202;11.326;2022-10-26T05:04:26;1020.13;;;15.63;30.78
46886;BME280;32622;48.202;11.326;2022-10-26T05:11:14;1020.09;;;15.45;32.41
46886;BME280;32622;48.202;11.326;2022-10-26T05:16:27;1020.53;;;13.62;33.15
46886;BME280;32622;48.202;11.326;2022-10-26T05:18:30;1020.89;;;12.03;32.70
46886;BME280;32622;48.202;11.326;2022-10-26T05:20:35;1020.97;;;11.89;32.36
46886;BME280;32622;48.202;11.326;2022-10-26T05:22:38;1020.95;;;12.09;31.56
46886;BME280;32622;48.202;11.326;2022-10-26T05:24:41;1020.95;;;12.45;31.48
46886;BME280;32622;48.202;11.326;2022-10-26T05:26:44;1020.96;;;12.49;31.41
46886;BME280;32622;48.202;11.326;2022-10-26T05:28:48;1021.01;;;12.34;30.88
46886;BME280;32622;48.202;11.326;2022-10-26T05:30:51;1021.06;;;12.34;30.87
46886;BME280;32622;48.202;11.326;2022-10-26T05:32:55;1020.91;;;12.81;30.56
46886;BME280;32622;48.202;11.326;2022-10-26T05:34:58;1021.03;;;12.81;30.65
46886;BME280;32622;48.202;11.326;2022-10-26T05:37:02;1021.21;;;12.20;30.97
46886;BME280;32622;48.202;11.326;2022-10-26T05:39:05;1021.10;;;12.85;30.52
46886;BME280;32622;48.202;11.326;2022-10-26T05:41:08;1021.00;;;12.86;30.30
46886;BME280;32622;48.202;11.326;2022-10-26T05:43:12;1020.93;;;13.32;30.12
46886;BME280;32622;48.202;11.326;2022-10-26T05:45:15;1021.00;;;12.82;29.94
46886;BME280;32622;48.202;11.326;2022-10-26T05:47:19;1021.17;;;12.54;30.20
46886;BME280;32622;48.202;11.326;2022-10-26T05:49:22;1021.08;;;13.16;29.74
46886;BME280;32622;48.202;11.326;2022-10-26T05:51:25;1021.32;;;12.21;29.92
46886;BME280;32622;48.202;11.326;2022-10-26T05:53:28;1021.11;;;12.90;29.63
46886;BME280;32622;48.202;11.326;2022-10-26T05:55:32;1021.07;;;12.75;29.49
46886;BME280;32622;48.202;11.326;2022-10-26T05:57:37;1021.04;;;13.05;29.14
46886;BME280;32622;48.202;11.326;2022-10-26T05:59:40;1020.85;;;13.70;28.67
46886;BME280;32622;48.202;11.326;2022-10-26T06:01:53;1021.00;;;12.64;29.62
46886;BME280;32622;48.202;11.326;2022-10-26T06:04:08;1020.95;;;12.72;29.53
46886;BME280;32622;48.202;11.326;2022-10-26T06:06:14;1020.97;;;12.91;29.42
46886;BME280;32622;48.202;11.326;2022-10-26T06:08:18;1020.99;;;13.17;29.23
46886;BME280;32622;48.202;11.326;2022-10-26T06:10:23;1021.11;;;12.78;29.14
46886;BME280;32622;48.202;11.326;2022-10-26T06:12:27;1021.06;;;13.43;29.01
46886;BME280;32622;48.202;11.326;2022-10-26T06:14:31;1021.06;;;13.72;28.56
46886;BME280;32622;48.202;11.326;2022-10-26T06:16:44;1021.32;;;12.34;30.41
46886;BME280;32622;48.202;11.326;2022-10-26T06:18:55;1021.24;;;12.80;29.80
46886;BME280;32622;48.202;11.326;2022-10-26T06:21:13;1021.30;;;12.48;30.33
46886;BME280;32622;48.202;11.326;2022-10-26T06:23:39;1021.76;;;10.56;32.92
46886;BME280;32622;48.202;11.326;2022-10-26T06:25:51;1021.25;;;12.72;31.19
46886;BME280;32622;48.202;11.326;2022-10-26T06:28:04;1021.23;;;12.78;30.50
46886;BME280;32622;48.202;11.326;2022-10-26T06:30:13;1021.29;;;12.32;30.51
46886;BME280;32622;48.202;11.326;2022-10-26T06:32:17;1021.14;;;13.07;30.19
46886;BME280;32622;48.202;11.326;2022-10-26T06:34:26;1021.10;;;13.14;29.86
46886;BME280;32622;48.202;11.326;2022-10-26T06:36:30;1021.04;;;13.34;29.71
46886;BME280;32622;48.202;11.326;2022-10-26T06:38:34;1021.05;;;13.42;29.63
46886;BME280;32622;48.202;11.326;2022-10-26T06:40:42;1021.13;;;12.90;29.75
46886;BME280;32622;48.202;11.326;2022-10-26T06:42:47;1021.49;;;11.12;31.49
46886;BME280;32622;48.202;11.326;2022-10-26T06:44:50;1021.62;;;10.74;32.40
46886;BME280;32622;48.202;11.326;2022-10-26T06:47:01;1021.26;;;12.29;31.09
46886;BME280;32622;48.202;11.326;2022-10-26T06:49:12;1021.27;;;12.49;30.89
46886;BME280;32622;48.202;11.326;2022-10-26T06:51:19;1021.26;;;12.68;30.81
46886;BME280;32622;48.202;11.326;2022-10-26T06:53:28;1021.16;;;12.94;30.65
46886;BME280;32622;48.202;11.326;2022-10-26T06:55:38;1021.14;;;13.01;30.36
46886;BME280;32622;48.202;11.326;2022-10-26T06:57:43;1021.16;;;13.09;30.05
46886;BME280;32622;48.202;11.326;2022-10-26T06:59:49;1021.10;;;13.19;29.91
46886;BME280;32622;48.202;11.326;2022-10-26T07:01:53;1021.13;;;13.09;30.10
46886;BME280;32622;48.202;11.326;2022-10-26T07:03:56;1021.12;;;12.97;30.22
46886;BME280;32622;48.202;11.326;2022-10-26T07:05:59;1021.09;;;13.14;30.15
46886;BME280;32622;48.202;11.326;2022-10-26T07:08:03;1021.15;;;13.04;29.93
46886;BME280;32622;48.202;11.326;2022-10-26T07:10:07;1021.23;;;12.60;31.10
46886;BME280;32622;48.202;11.326;2022-10-26T07:12:10;1021.84;;;9.94;35.10
46886;BME280;32622;48.202;11.326;2022-10-26T07:14:13;1021.72;;;10.60;34.47
46886;BME280;32622;48.202;11.326;2022-10-26T07:16:16;1021.79;;;10.52;34.40
46886;BME280;32622;48.202;11.326;2022-10-26T07:18:19;1021.40;;;12.43;32.68
46886;BME280;32622;48.202;11.326;2022-10-26T07:20:22;1021.29;;;12.67;31.74
46886;BME280;32622;48.202;11.326;2022-10-26T07:22:25;1021.45;;;12.11;32.79
46886;BME280;32622;48.202;11.326;2022-10-26T07:24:28;1021.30;;;12.70;31.84
46886;BME280;32622;48.202;11.326;2022-10-26T07:26:31;1021.29;;;12.69;31.90
46886;BME280;32622;48.202;11.326;2022-10-26T07:28:34;1021.24;;;12.70;31.28
46886;BME280;32622;48.202;11.326;2022-10-26T07:30:38;1021.12;;;13.39;30.67
46886;BME280;32622;48.202;11.326;2022-10-26T07:32:42;1021.10;;;13.49;30.62
46886;BME280;32622;48.202;11.326;2022-10-26T07:34:45;1021.06;;;13.60;30.41
46886;BME280;32622;48.202;11.326;2022-10-26T07:36:48;1020.98;;;14.06;30.10
46886;BME280;32622;48.202;11.326;2022-10-26T07:38:52;1021.08;;;13.62;30.10
46886;BME280;32622;48.202;11.326;2022-10-26T07:40:55;1020.91;;;14.18;29.82
46886;BME280;32622;48.202;11.326;2022-10-26T07:42:59;1020.93;;;13.98;29.61
46886;BME280;32622;48.202;11.326;2022-10-26T07:45:04;1020.85;;;14.41;29.64
46886;BME280;32622;48.202;11.326;2022-10-26T07:47:07;1021.08;;;13.18;30.81
46886;BME280;32622;48.202;11.326;2022-10-26T07:49:10;1021.08;;;13.11;30.88
46886;BME280;32622;48.202;11.326;2022-10-26T07:51:13;1020.95;;;13.61;30.20
46886;BME280;32622;48.202;11.326;2022-10-26T07:53:17;1020.78;;;14.41;29.96
46886;BME280;32622;48.202;11.326;2022-10-26T07:55:20;1021.06;;;13.31;30.24
46886;BME280;32622;48.202;11.326;2022-10-26T07:57:23;1021.01;;;13.82;29.95
46886;BME280;32622;48.202;11.326;2022-10-26T07:59:26;1020.96;;;14.58;29.35
46886;BME280;32622;48.202;11.326;2022-10-26T08:01:29;1021.02;;;14.48;29.37
46886;BME280;32622;48.202;11.326;2022-10-26T08:03:32;1020.95;;;14.91;29.14
46886;BME280;32622;48.202;11.326;2022-10-26T08:05:35;1020.83;;;15.24;28.96
46886;BME280;32622;48.202;11.326;2022-10-26T08:07:42;1020.84;;;15.29;29.01
46886;BME280;32622;48.202;11.326;2022-10-26T08:09:46;1020.75;;;15.50;28.96
46886;BME280;32622;48.202;11.326;2022-10-26T08:11:49;1020.75;;;15.58;28.71
46886;BME280;32622;48.202;11.326;2022-10-26T08:13:52;1020.83;;;15.28;28.59
46886;BME280;32622;48.202;11.326;2022-10-26T08:15:57;1020.71;;;15.63;28.59
46886;BME280;32622;48.202;11.326;2022-10-26T08:18:00;1020.74;;;15.62;28.29
46886;BME280;32622;48.202;11.326;2022-10-26T08:20:04;1020.67;;;15.88;27.91
46886;BME280;32622;48.202;11.326;2022-10-26T08:22:07;1020.62;;;15.96;27.73
46886;BME280;32622;48.202;11.326;2022-10-26T08:24:10;1020.60;;;15.91;28.00
46886;BME280;32622;48.202;11.326;2022-10-26T08:26:13;1020.53;;;16.22;28.21
46886;BME280;32622;48.202;11.326;2022-10-26T08:28:17;1020.59;;;15.81;28.29
46886;BME280;32622;48.202;11.326;2022-10-26T08:30:20;1020.54;;;16.14;28.10
46886;BME280;32622;48.202;11.326;2022-10-26T08:32:23;1020.53;;;16.30;28.01
46886;BME280;32622;48.202;11.326;2022-10-26T08:34:27;1020.58;;;16.26;27.97
46886;BME280;32622;48.202;11.326;2022-10-26T08:36:30;1020.41;;;16.96;27.68
46886;BME280;32622;48.202;11.326;2022-10-26T08:38:34;1020.55;;;16.43;27.13
46886;BME280;32622;48.202;11.326;2022-10-26T08:40:39;1020.73;;;15.58;28.05
46886;BME280;32622;48.202;11.326;2022-10-26T08:42:47;1020.51;;;16.62;27.49
46886;BME280;32622;48.202;11.326;2022-10-26T08:44:56;1020.73;;;15.68;27.90
46886;BME280;32622;48.202;11.326;2022-10-26T08:47:05;1020.67;;;16.32;27.74
46886;BME280;32622;48.202;11.326;2022-10-26T08:49:17;1020.69;;;16.22;27.67
46886;BME280;32622;48.202;11.326;2022-10-26T08:51:24;1020.73;;;16.01;28.23
46886;BME280;32622;48.202;11.326;2022-10-26T08:53:33;1020.91;;;15.31;28.92
46886;BME280;32622;48.202;11.326;2022-10-26T08:55:43;1020.88;;;15.58;28.69
46886;BME280;32622;48.202;11.326;2022-10-26T08:57:47;1021.04;;;14.98;29.22
46886;BME280;32622;48.202;11.326;2022-10-26T08:59:57;1020.91;;;15.74;28.88
46886;BME280;32622;48.202;11.326;2022-10-26T09:02:02;1020.93;;;15.56;29.36
46886;BME280;32622;48.202;11.326;2022-10-26T09:04:09;1020.87;;;15.69;28.74
46886;BME280;32622;48.202;11.326;2022-10-26T09:06:20;1020.82;;;16.00;28.61
46886;BME280;32622;48.202;11.326;2022-10-26T09:08:31;1020.88;;;15.77;28.76
46886;BME280;32622;48.202;11.326;2022-10-26T09:10:40;1020.83;;;15.92;28.86
46886;BME280;32622;48.202;11.326;2022-10-26T09:12:51;1020.73;;;16.46;28.46
46886;BME280;32622;48.202;11.326;2022-10-26T09:15:04;1020.89;;;15.81;29.13
46886;BME280;32622;48.202;11.326;2022-10-26T09:17:17;1020.71;;;16.66;28.47
46886;BME280;32622;48.202;11.326;2022-10-26T09:19:36;1020.67;;;16.92;27.68
46886;BME280;32622;48.202;11.326;2022-10-26T09:21:48;1020.73;;;16.60;27.55
46886;BME280;32622;48.202;11.326;2022-10-26T09:24:01;1020.63;;;17.15;28.13
46886;BME280;32622;48.202;11.326;2022-10-26T09:26:12;1020.65;;;17.22;27.65
46886;BME280;32622;48.202;11.326;2022-10-26T09:28:17;1020.87;;;16.32;28.11
46886;BME280;32622;48.202;11.326;2022-10-26T09:30:22;1021.18;;;14.88;28.64
46886;BME280;32622;48.202;11.326;2022-10-26T09:32:33;1021.04;;;15.51;28.62
46886;BME280;32622;48.202;11.326;2022-10-26T09:34:39;1020.89;;;16.22;28.20
46886;BME280;32622;48.202;11.326;2022-10-26T09:36:44;1021.10;;;15.63;27.98
46886;BME280;32622;48.202;11.326;2022-10-26T09:38:52;1021.05;;;15.91;28.13
46886;BME280;32622;48.202;11.326;2022-10-26T09:41:01;1021.10;;;15.89;28.14
46886;BME280;32622;48.202;11.326;2022-10-26T09:43:11;1021.18;;;15.79;27.84
46886;BME280;32622;48.202;11.326;2022-10-26T09:45:19;1021.05;;;16.48;27.44
46886;BME280;32622;48.202;11.326;2022-10-26T09:47:30;1021.04;;;16.69;27.70
46886;BME280;32622;48.202;11.326;2022-10-26T09:49:41;1020.90;;;17.39;26.91
46886;BME280;32622;48.202;11.326;2022-10-26T09:51:47;1021.12;;;16.42;27.15
46886;BME280;32622;48.202;11.326;2022-10-26T09:53:50;1021.08;;;16.76;27.15
46886;BME280;32622;48.202;11.326;2022-10-26T09:56:00;1021.24;;;15.95;27.79
46886;BME280;32622;48.202;11.326;2022-10-26T09:58:08;1021.02;;;17.04;27.30
46886;BME280;32622;48.202;11.326;2022-10-26T10:00:17;1021.17;;;16.29;27.30
46886;BME280;32622;48.202;11.326;2022-10-26T10:02:37;1021.04;;;16.94;26.55
46886;BME280;32622;48.202;11.326;2022-10-26T10:04:45;1020.83;;;17.79;26.31
46886;BME280;32622;48.202;11.326;2022-10-26T10:06:50;1021.03;;;17.17;26.66
46886;BME280;32622;48.202;11.326;2022-10-26T10:09:05;1020.88;;;17.87;25.32
46886;BME280;32622;48.202;11.326;2022-10-26T10:11:10;1020.83;;;18.08;25.26
46886;BME280;32622;48.202;11.326;2022-10-26T10:13:15;1020.77;;;18.43;25.40
46886;BME280;32622;48.202;11.326;2022-10-26T10:15:21;1021.00;;;17.67;25.86
46886;BME280;32622;48.202;11.326;2022-10-26T10:17:25;1021.48;;;15.47;27.33
46886;BME280;32622;48.202;11.326;2022-10-26T10:19:30;1021.45;;;15.92;28.59
46886;BME280;32622;48.202;11.326;2022-10-26T10:21:35;1021.28;;;16.86;27.82
46886;BME280;32622;48.202;11.326;2022-10-26T10:23:48;1021.18;;;17.27;27.55
46886;BME280;32622;48.202;11.326;2022-10-26T10:25:59;1021.07;;;18.03;27.09
46886;BME280;32622;48.202;11.326;2022-10-26T10:28:18;1021.07;;;18.17;26.57
46886;BME280;32622;48.202;11.326;2022-10-26T10:30:26;1021.11;;;18.15;26.65
46886;BME280;32622;48.202;11.326;2022-10-26T10:32:30;1021.11;;;18.04;26.34
46886;BME280;32622;48.202;11.326;2022-10-26T10:34:34;1021.09;;;18.13;26.08
46886;BME280;32622;48.202;11.326;2022-10-26T10:36:39;1021.07;;;18.21;26.26
46886;BME280;32622;48.202;11.326;2022-10-26T10:38:44;1021.04;;;18.36;25.84
46886;BME280;32622;48.202;11.326;2022-10-26T10:40:50;1020.94;;;18.81;25.71
46886;BME280;32622;48.202;11.326;2022-10-26T10:43:02;1021.07;;;18.21;25.52
46886;BME280;32622;48.202;11.326;2022-10-26T10:45:18;1021.02;;;18.60;24.85
46886;BME280;32622;48.202;11.326;2022-10-26T10:47:23;1020.94;;;18.92;24.95
46886;BME280;32622;48.202;11.326;2022-10-26T10:49:28;1021.20;;;17.79;25.37
46886;BME280;32622;48.202;11.326;2022-10-26T10:51:37;1021.00;;;18.83;24.87
46886;BME280;32622;48.202;11.326;2022-10-26T10:53:45;1021.25;;;17.68;25.53
46886;BME280;32622;48.202;11.326;2022-10-26T10:56:06;1021.27;;;17.52;25.31
46886;BME280;32622;48.202;11.326;2022-10-26T10:58:20;1021.13;;;18.19;25.56
46886;BME280;32622;48.202;11.326;2022-10-26T11:00:26;1021.18;;;17.87;25.28
46886;BME280;32622;48.202;11.326;2022-10-26T11:05:18;1020.98;;;18.72;25.20
46886;BME280;32622;48.202;11.326;2022-10-26T11:07:24;1021.14;;;18.08;25.19
46886;BME280;32622;48.202;11.326;2022-10-26T11:09:32;1021.21;;;17.73;25.61
46886;BME280;32622;48.202;11.326;2022-10-26T11:11:40;1020.98;;;18.86;25.09
46886;BME280;32622;48.202;11.326;2022-10-26T11:13:51;1020.97;;;19.08;24.58
46886;BME280;32622;48.202;11.326;2022-10-26T11:15:59;1020.95;;;19.26;24.54
46886;BME280;32622;48.202;11.326;2022-10-26T11:18:06;1021.02;;;18.96;24.51
46886;BME280;32622;48.202;11.326;2022-10-26T11:20:15;1021.00;;;19.18;24.49
46886;BME280;32622;48.202;11.326;2022-10-26T11:22:24;1021.10;;;18.77;25.02
46886;BME280;32622;48.202;11.326;2022-10-26T11:24:32;1021.56;;;17.07;26.42
46886;BME280;32622;48.202;11.326;2022-10-26T11:26:42;1021.28;;;18.40;25.08
46886;BME280;32622;48.202;11.326;2022-10-26T11:28:50;1021.38;;;18.11;25.58